Forside
METAR-TAF:

METAR-TAF

Lufthavne :

Nadi, Fiji

Breddekreds: 17-45S, længdekreds: 177-27E, højde: 13 m

Aktuelle vejr

Denne rapport blev lavet for 10 minutter siden, kl. 02:00 UTC
Vind 12 kt fra vestsydvest
Temperatur 29°C
Fugtighed 62%
Tryk 1006 hPa
Sigt 10 km eller mere
Nogle få skyer i en højde af 3000 ft

METAR: NFFN 170200Z 24012KT 9999 FEW030 29/21 Q1006 NOSIG

Tid: 15:10 (02:10 UTC)

Vejrudsigter

Denne rapport blev lavet for 3 timer og 9 minutter siden, kl. 23:01 UTC
Foreløbig gælder fra 17 på 00 UTC til 17 på 24 UTC
Vind 10 kt fra vestsydvest
Sigt 10 km eller mere
Nogle få skyer i en højde af 2800 ft
ændring
fra 17 på 04 UTC til 17 på 06 UTC
Vind 5 kt fra sydsydøst
ændring
fra 17 på 22 UTC til 17 på 24 UTC
Vind 10 kt fra vest

TAF: NFFN 162301Z 1700/1724 25010KT 9999 FEW028 BECMG 1704/1706 16005KT BECMG 1722/1724 26010KT

Vejrobservationer og prognoser fra mere end 4000 lufthavne (METAR og TAF).

De gule og røde prikker repræsenterer de meteorologiske stationer.

Flyt musen over at se navnet på stationen.

Så klik over at se vejr observationer og prognoser.

At skifte det kort: Klik på de grønne knapper med et sort kors for at zoome ind; på den grønne knap med en bindestreg for at zoome ud; eller på de grønne pile for tilstødende kort.


METAR-TAF: